Time;durP1;ratioP1;P1;durP2;ratioP2;P2;SDS_P1;SDS_P2;PMS_P1;PMS_P2;Temp;Humidity;BMP_temperature;BMP_pressure;BME280_temperature;BME280_humidity;BME280_pressure;Samples;Min_cycle;Max_cycle;Signal;HPM_P1;HPM_P2
2024/02/12 00:00:18;;;;;;;4.88;3.67;;;;;;;9.87;100.00;98561.50;5115121;28;20044;-46
2024/02/12 00:02:49;;;;;;;6.40;3.88;;;;;;;9.95;100.00;98567.03;5114913;28;20091;-43
2024/02/12 00:05:17;;;;;;;5.57;4.00;;;;;;;9.93;100.00;98570.78;5115026;28;20126;-45
2024/02/12 00:07:46;;;;;;;6.35;3.70;;;;;;;9.80;100.00;98575.47;5114743;28;20166;-43
2024/02/12 00:10:14;;;;;;;6.35;4.30;;;;;;;9.88;100.00;98578.31;5114574;28;20055;-43
2024/02/12 00:12:43;;;;;;;5.53;4.13;;;;;;;9.85;100.00;98578.59;5114775;28;20077;-45
2024/02/12 00:15:12;;;;;;;5.63;3.80;;;;;;;9.89;100.00;98577.34;5115215;28;20039;-46
2024/02/12 00:17:41;;;;;;;4.88;3.83;;;;;;;9.80;100.00;98578.97;5114943;28;20043;-44
2024/02/12 00:20:12;;;;;;;6.20;4.00;;;;;;;9.70;100.00;98581.53;5114664;28;20070;-45
2024/02/12 00:22:41;;;;;;;7.05;4.30;;;;;;;9.48;100.00;98580.78;5114642;28;20090;-47
2024/02/12 00:25:12;;;;;;;5.50;3.70;;;;;;;9.46;100.00;98587.09;5114897;28;20524;-45
2024/02/12 00:27:41;;;;;;;5.57;3.95;;;;;;;9.35;100.00;98586.25;5114844;28;20112;-45
2024/02/12 00:30:12;;;;;;;5.93;4.15;;;;;;;9.38;100.00;98586.88;5114594;28;20040;-46
2024/02/12 00:32:42;;;;;;;6.00;4.10;;;;;;;9.35;100.00;98586.25;5114456;28;20096;-47
2024/02/12 00:35:12;;;;;;;5.88;4.28;;;;;;;9.39;100.00;98588.56;5114338;28;20093;-45
2024/02/12 00:37:40;;;;;;;5.50;4.20;;;;;;;9.62;100.00;98584.00;5114493;28;20086;-45
2024/02/12 00:40:09;;;;;;;6.97;4.68;;;;;;;9.55;100.00;98593.44;5114638;28;20412;-48
2024/02/12 00:42:39;;;;;;;5.43;4.03;;;;;;;9.30;100.00;98591.13;5114295;28;20047;-46
2024/02/12 00:45:09;;;;;;;6.18;3.97;;;;;;;9.25;100.00;98591.47;5114295;28;20134;-46
2024/02/12 00:47:40;;;;;;;6.10;4.10;;;;;;;9.34;100.00;98592.53;5114039;28;20134;-46
2024/02/12 00:50:09;;;;;;;5.88;4.00;;;;;;;9.23;100.00;98584.59;5114271;28;20044;-45
2024/02/12 00:52:41;;;;;;;6.07;4.35;;;;;;;9.30;100.00;98593.78;5114686;28;20370;-46
2024/02/12 00:55:11;;;;;;;5.68;3.95;;;;;;;9.38;100.00;98586.88;5114043;27;20048;-45
2024/02/12 00:57:40;;;;;;;5.55;3.85;;;;;;;9.32;100.00;98591.84;5113923;28;20039;-43
2024/02/12 01:00:12;;;;;;;6.78;4.40;;;;;;;9.56;100.00;98592.50;5112720;28;20055;-45
2024/02/12 01:02:42;;;;;;;;;;;;;;;9.61;100.00;98595.63;5113992;28;20075;-49
2024/02/12 01:05:11;;;;;;;6.20;4.53;;;;;;;9.56;100.00;98581.84;5113752;28;20372;-47
2024/02/12 01:07:41;;;;;;;6.70;4.20;;;;;;;9.69;100.00;98593.16;5113842;27;20054;-45
2024/02/12 01:10:11;;;;;;;6.25;4.35;;;;;;;9.79;100.00;98590.59;5113744;28;20100;-47
2024/02/12 01:12:40;;;;;;;5.95;4.07;;;;;;;9.78;100.00;98593.38;5113726;28;20051;-48
2024/02/12 01:15:10;;;;;;;5.60;4.10;;;;;;;9.88;100.00;98594.31;5113892;28;20126;-46
2024/02/12 01:17:40;;;;;;;6.32;4.43;;;;;;;9.86;100.00;98596.25;5113858;28;20055;-47
2024/02/12 01:20:18;;;;;;;6.70;4.35;;;;;;;9.83;100.00;98597.34;5113594;27;20065;-48
2024/02/12 01:22:48;;;;;;;6.10;4.03;;;;;;;9.84;100.00;98598.19;5113340;28;20048;-47
2024/02/12 01:25:17;;;;;;;6.45;4.40;;;;;;;9.74;100.00;98596.28;5113265;28;20052;-46
2024/02/12 01:27:46;;;;;;;5.75;4.25;;;;;;;9.73;100.00;98601.75;5113724;28;20542;-46
2024/02/12 01:30:14;;;;;;;5.90;4.35;;;;;;;9.81;100.00;98598.44;5113429;28;20043;-46
2024/02/12 01:32:43;;;;;;;5.82;4.28;;;;;;;9.88;100.00;98602.28;5113226;28;20071;-46
2024/02/12 01:35:12;;;;;;;7.50;4.30;;;;;;;9.82;100.00;98600.97;5113288;28;20415;-45
2024/02/12 01:37:41;;;;;;;6.15;4.20;;;;;;;9.83;100.00;98601.81;5113017;27;20048;-47
2024/02/12 01:40:11;;;;;;;6.00;3.92;;;;;;;9.86;100.00;98599.78;5113395;28;20090;-45
2024/02/12 01:42:40;;;;;;;6.82;4.82;;;;;;;9.90;100.00;98600.34;5113392;28;20405;-47
2024/02/12 01:45:13;;;;;;;6.07;4.28;;;;;;;9.91;100.00;98604.69;5113318;28;20051;-46
2024/02/12 01:47:46;;;;;;;7.35;4.50;;;;;;;9.86;100.00;98599.78;5112785;28;20565;-46
2024/02/12 01:50:15;;;;;;;8.73;4.25;;;;;;;9.93;100.00;98602.75;5112751;28;20048;-46
2024/02/12 01:52:48;;;;;;;5.15;3.80;;;;;;;9.94;100.00;98593.78;5112674;28;20043;-46
2024/02/12 01:55:20;;;;;;;6.75;4.18;;;;;;;9.91;100.00;98594.03;5112930;28;20044;-46
2024/02/12 01:57:50;;;;;;;6.07;3.88;;;;;;;9.90;100.00;98597.69;5112851;28;20039;-47
2024/02/12 02:00:23;;;;;;;6.13;3.88;;;;;;;9.95;100.00;98591.00;5112752;28;20090;-46
2024/02/12 02:02:52;;;;;;;6.10;4.55;;;;;;;9.88;100.00;98594.31;5112171;28;20575;-46
2024/02/12 02:05:20;;;;;;;5.38;3.90;;;;;;;9.96;100.00;98591.84;5112837;27;20055;-47
2024/02/12 02:07:52;;;;;;;5.65;4.05;;;;;;;9.93;100.00;98597.41;5112775;28;20048;-46
2024/02/12 02:10:23;;;;;;;5.60;3.92;;;;;;;9.91;100.00;98594.03;5112746;28;20043;-45
2024/02/12 02:12:53;;;;;;;5.25;3.75;;;;;;;9.95;100.00;98599.00;5112383;28;20089;-45
2024/02/12 02:15:22;;;;;;;5.50;3.80;;;;;;;9.93;100.00;98595.59;5112448;28;20047;-45
2024/02/12 02:17:51;;;;;;;5.95;4.13;;;;;;;9.95;100.00;98591.00;5112724;28;20051;-45
2024/02/12 02:20:23;;;;;;;6.05;4.18;;;;;;;9.97;100.00;98594.38;5113128;28;20412;-46
2024/02/12 02:22:54;;;;;;;6.47;3.88;;;;;;;9.98;100.00;98600.56;5114028;28;20047;-46
2024/02/12 02:25:24;;;;;;;5.72;3.70;;;;;;;10.05;100.00;98596.41;5112821;28;20499;-46
2024/02/12 02:27:52;;;;;;;5.97;4.07;;;;;;;10.00;100.00;98598.59;5112589;28;20400;-45
2024/02/12 02:30:21;;;;;;;5.68;3.90;;;;;;;9.90;100.00;98598.53;5112128;28;20044;-45
2024/02/12 02:32:50;;;;;;;5.57;3.80;;;;;;;9.47;100.00;98587.94;5112180;28;20122;-46
2024/02/12 02:35:19;;;;;;;5.95;3.95;;;;;;;9.46;100.00;98588.91;5112517;28;20046;-46
2024/02/12 02:37:48;;;;;;;5.65;4.30;;;;;;;9.44;100.00;98590.81;5112325;28;20187;-46
2024/02/12 02:40:16;;;;;;;5.70;4.13;;;;;;;9.51;100.00;98586.69;5112214;28;20040;-45
2024/02/12 02:42:47;;;;;;;6.47;4.45;;;;;;;9.63;100.00;98583.00;5112077;28;20138;-45
2024/02/12 02:45:16;;;;;;;5.30;3.92;;;;;;;9.64;100.00;98590.03;5111903;28;20104;-46
2024/02/12 02:47:44;;;;;;;6.30;4.40;;;;;;;9.77;100.00;98597.03;5112308;28;20104;-45
2024/02/12 02:50:13;;;;;;;6.68;4.75;;;;;;;9.83;100.00;98594.66;5112178;28;20594;-43
2024/02/12 02:52:41;;;;;;;6.85;4.70;;;;;;;9.71;100.00;98591.22;5111618;28;20538;-45
2024/02/12 02:55:11;;;;;;;7.60;4.60;;;;;;;9.82;100.00;98600.97;5111489;28;20147;-46
2024/02/12 02:57:40;;;;;;;6.45;4.70;;;;;;;9.79;100.00;98597.75;5111587;28;20040;-46
2024/02/12 03:00:15;;;;;;;7.05;4.70;;;;;;;9.80;100.00;98602.09;5111895;28;20055;-46
2024/02/12 03:02:44;;;;;;;6.30;4.50;;;;;;;9.79;100.00;98597.75;5111659;28;20134;-45
2024/02/12 03:05:14;;;;;;;6.88;5.05;;;;;;;9.80;100.00;98602.09;5111673;28;20047;-45
2024/02/12 03:07:47;;;;;;;6.35;4.75;;;;;;;9.79;100.00;98605.72;5111255;28;20043;-45
2024/02/12 03:10:16;;;;;;;6.83;4.67;;;;;;;9.75;100.00;98603.31;5110504;28;20134;-45
2024/02/12 03:12:46;;;;;;;6.45;4.43;;;;;;;9.78;100.00;98604.03;5111670;28;20359;-46
2024/02/12 03:15:16;;;;;;;5.88;4.30;;;;;;;9.81;100.00;98609.09;5111733;28;20129;-45
2024/02/12 03:17:47;;;;;;;6.82;4.68;;;;;;;9.82;100.00;98610.78;5111682;28;20536;-47
2024/02/12 03:20:17;;;;;;;8.25;4.80;;;;;;;9.76;100.00;98617.47;5111518;28;20388;-47
2024/02/12 03:22:46;;;;;;;6.68;4.63;;;;;;;9.67;100.00;98616.41;5111460;28;20052;-48
2024/02/12 03:25:15;;;;;;;6.68;4.82;;;;;;;9.67;100.00;98619.09;5110832;28;20055;-45
2024/02/12 03:27:44;;;;;;;7.47;4.78;;;;;;;9.67;100.00;98627.06;5111396;28;20414;-47
2024/02/12 03:30:14;;;;;;;7.57;4.82;;;;;;;9.60;100.00;98623.22;5111314;28;20051;-46
2024/02/12 03:32:46;;;;;;;6.20;4.63;;;;;;;9.68;100.00;98628.75;5111182;28;20160;-45
2024/02/12 03:35:14;;;;;;;9.82;5.00;;;;;;;9.67;100.00;98628.88;5111518;28;20108;-47
2024/02/12 03:37:43;;;;;;;6.47;4.50;;;;;;;9.75;100.00;98629.09;5111396;28;20048;-44
2024/02/12 03:40:16;;;;;;;6.28;4.28;;;;;;;9.68;100.00;98631.41;5111192;28;20047;-46
2024/02/12 03:42:49;;;;;;;6.97;4.20;;;;;;;9.67;100.00;98628.88;5111213;28;20067;-47
2024/02/12 03:45:19;;;;;;;5.72;3.88;;;;;;;9.76;100.00;98628.13;5111427;28;20079;-45
2024/02/12 03:47:49;;;;;;;6.93;4.20;;;;;;;9.82;100.00;98632.94;5111071;28;20511;-46
2024/02/12 04:01:22;;;;;;;5.93;3.85;;;;;;;9.73;100.00;98631.03;5098738;28;20044;-44
2024/02/12 04:03:53;;;;;;;6.10;4.47;;;;;;;9.72;100.00;98626.69;5109297;28;20048;-45
2024/02/12 04:06:22;;;;;;;7.95;3.92;;;;;;;9.77;100.00;98639.63;5110731;28;20093;-48
2024/02/12 04:08:51;;;;;;;6.68;3.88;;;;;;;9.71;100.00;98631.16;5111106;28;20051;-45
2024/02/12 04:11:20;;;;;;;5.28;4.07;;;;;;;9.90;100.00;98634.97;5111021;28;20051;-44
2024/02/12 04:13:49;;;;;;;7.03;4.45;;;;;;;9.90;100.00;98629.63;5111050;28;20039;-46
2024/02/12 04:16:18;;;;;;;6.93;4.22;;;;;;;9.91;100.00;98637.50;5111320;28;20138;-46
2024/02/12 04:18:47;;;;;;;6.38;4.53;;;;;;;9.92;100.00;98635.69;5112058;28;20086;-46
2024/02/12 04:21:20;;;;;;;6.70;4.40;;;;;;;9.92;100.00;98630.34;5114551;28;20116;-47
2024/02/12 04:23:49;;;;;;;;;;;;;;;9.90;100.00;98635.81;5111689;28;20091;-45
2024/02/12 04:26:18;;;;;;;7.03;4.75;;;;;;;9.86;100.00;98633.53;5110851;28;19919;-45
2024/02/12 04:28:48;;;;;;;7.28;4.68;;;;;;;9.78;100.00;98630.66;5110549;28;20056;-44
2024/02/12 04:31:17;;;;;;;6.63;4.60;;;;;;;9.77;100.00;98634.31;5109528;28;20392;-47
2024/02/12 04:33:46;;;;;;;7.28;5.13;;;;;;;9.80;100.00;98634.03;5110861;28;20078;-43
2024/02/12 04:36:16;;;;;;;7.95;5.00;;;;;;;9.68;100.00;98630.56;5113850;28;20427;-45
2024/02/12 04:38:45;;;;;;;8.05;5.57;;;;;;;9.75;100.00;98629.94;5114385;28;20116;-45
2024/02/12 04:41:13;;;;;;;7.65;5.22;;;;;;;9.82;100.00;98637.41;5114714;28;20058;-45
2024/02/12 04:43:42;;;;;;;7.28;5.40;;;;;;;9.85;100.00;98626.53;5114340;28;20111;-46
2024/02/12 04:46:10;;;;;;;8.35;5.60;;;;;;;9.75;100.00;98626.44;5114603;28;20047;-47
2024/02/12 04:48:40;;;;;;;8.57;5.47;;;;;;;9.80;100.00;98628.72;5114308;28;20122;-45
2024/02/12 04:51:09;;;;;;;8.05;5.63;;;;;;;9.71;100.00;98625.00;5114684;27;20048;-46
2024/02/12 04:53:39;;;;;;;9.18;5.38;;;;;;;9.77;100.00;98623.66;5114197;28;20078;-47
2024/02/12 04:56:08;;;;;;;9.05;5.45;;;;;;;9.54;100.00;98623.69;5114142;28;20055;-47
2024/02/12 04:58:38;;;;;;;7.95;5.30;;;;;;;9.66;100.00;98628.03;5113955;28;20044;-46
2024/02/12 05:01:07;;;;;;;8.77;5.38;;;;;;;9.70;100.00;98624.16;5114136;28;20136;-46
2024/02/12 05:03:37;;;;;;;8.38;5.75;;;;;;;9.46;100.00;98629.66;5113538;28;20476;-47
2024/02/12 05:06:06;;;;;;;7.80;5.05;;;;;;;9.39;100.00;98627.63;5113788;28;20051;-45
2024/02/12 05:08:34;;;;;;;8.65;5.65;;;;;;;9.48;100.00;98631.34;5113818;28;20051;-47
2024/02/12 05:11:05;;;;;;;9.52;5.90;;;;;;;9.68;100.00;98633.25;5114031;28;20135;-47
2024/02/12 05:13:33;;;;;;;9.80;5.97;;;;;;;9.74;100.00;98630.91;5113919;28;20138;-46
2024/02/12 05:16:04;;;;;;;7.82;5.40;;;;;;;9.52;100.00;98630.97;5113532;28;20149;-45
2024/02/12 05:24:04;;;;;;;8.60;5.88;;;;;;;9.45;100.00;98645.75;5101992;28;20083;-47
2024/02/12 05:26:34;;;;;;;9.50;5.90;;;;;;;9.46;100.00;98636.81;5113364;28;20059;-47
2024/02/12 05:29:03;;;;;;;8.82;5.70;;;;;;;9.40;100.00;98639.97;5113496;28;20079;-47
2024/02/12 05:31:33;;;;;;;7.10;5.28;;;;;;;9.48;100.00;98639.34;5113420;28;20047;-45
2024/02/12 05:34:02;;;;;;;9.20;6.22;;;;;;;9.31;100.00;98644.22;5113417;28;20121;-46
2024/02/12 05:36:31;;;;;;;8.98;6.30;;;;;;;9.38;100.00;98644.56;5113576;28;20198;-46
2024/02/12 05:39:02;;;;;;;8.38;5.80;;;;;;;9.33;100.00;98641.41;5113407;28;20050;-48
2024/02/12 05:41:31;;;;;;;10.20;6.10;;;;;;;9.42;100.00;98646.84;5113397;28;20143;-46
2024/02/12 05:44:01;;;;;;;8.43;6.20;;;;;;;9.39;100.00;98646.25;5113219;28;20568;-46
2024/02/12 05:46:29;;;;;;;9.95;7.05;;;;;;;9.38;100.00;98649.88;5112496;28;20124;-45
2024/02/12 05:49:00;;;;;;;9.88;6.70;;;;;;;9.22;100.00;98649.41;5113184;28;20082;-45
2024/02/12 05:51:28;;;;;;;10.07;6.90;;;;;;;9.15;100.00;98655.22;5113089;28;20040;-45
2024/02/12 05:53:57;;;;;;;10.50;7.50;;;;;;;9.23;100.00;98656.44;5113491;28;20047;-46
2024/02/12 05:56:25;;;;;;;11.48;7.22;;;;;;;9.16;100.00;98662.22;5112902;28;20048;-45
2024/02/12 05:58:53;;;;;;;12.63;7.63;;;;;;;9.28;100.00;98664.91;5113085;28;20054;-45
2024/02/12 06:01:26;;;;;;;13.02;7.72;;;;;;;9.36;100.00;98665.09;5114752;28;20054;-47
2024/02/12 06:03:54;;;;;;;13.02;8.50;;;;;;;9.34;100.00;98670.56;5114612;28;20130;-46
2024/02/12 06:06:24;;;;;;;11.38;7.78;;;;;;;9.43;100.00;98672.47;5112771;28;20181;-45
2024/02/12 06:08:56;;;;;;;11.50;7.32;;;;;;;9.53;100.00;98674.41;5112523;28;20056;-46
2024/02/12 06:11:24;;;;;;;13.25;7.82;;;;;;;9.29;100.00;98677.22;5112593;28;20050;-46
2024/02/12 06:13:56;;;;;;;12.20;7.50;;;;;;;9.28;100.00;98683.53;5112968;28;20051;-47
2024/02/12 06:16:26;;;;;;;10.98;7.63;;;;;;;9.30;100.00;98684.25;5112554;28;20108;-47
2024/02/12 06:18:56;;;;;;;11.10;7.32;;;;;;;9.25;100.00;98691.72;5112327;28;20062;-45
2024/02/12 06:21:24;;;;;;;12.18;7.68;;;;;;;9.50;100.00;98686.16;5112363;28;20039;-49
2024/02/12 06:23:53;;;;;;;10.13;7.10;;;;;;;9.30;100.00;98687.75;5112623;28;20044;-45
2024/02/12 06:26:21;;;;;;;13.23;8.23;;;;;;;9.33;100.00;98689.31;5112191;28;20051;-45
2024/02/12 06:28:50;;;;;;;11.23;7.95;;;;;;;9.28;100.00;98691.50;5112180;28;20044;-47
2024/02/12 06:31:19;;;;;;;11.23;7.90;;;;;;;9.50;100.00;98696.78;5112329;28;20138;-46
2024/02/12 06:33:48;;;;;;;11.10;7.63;;;;;;;9.46;100.00;98695.38;5112231;28;20054;-45
2024/02/12 06:36:17;;;;;;;11.73;7.53;;;;;;;9.37;100.00;98701.41;5112309;28;20047;-45
2024/02/12 06:38:45;;;;;;;11.25;7.38;;;;;;;9.31;100.00;98701.91;5112182;28;20054;-48
2024/02/12 06:41:13;;;;;;;9.93;6.78;;;;;;;9.29;100.00;98698.53;5112586;28;20039;-47
2024/02/12 06:43:42;;;;;;;12.88;7.85;;;;;;;9.15;100.00;98700.44;5112289;28;20047;-46
2024/02/12 06:46:10;;;;;;;12.65;8.20;;;;;;;9.09;100.00;98702.75;5112253;28;20138;-46
2024/02/12 06:48:41;;;;;;;14.38;9.13;;;;;;;9.27;100.00;98705.78;5113427;28;20044;-45
2024/02/12 06:51:11;;;;;;;16.38;9.82;;;;;;;9.34;100.00;98705.16;5112123;28;20531;-47
2024/02/12 06:53:44;;;;;;;14.70;9.38;;;;;;;9.27;100.00;98708.44;5111901;28;20077;-45
2024/02/12 06:56:12;;;;;;;15.55;9.55;;;;;;;9.49;100.00;98707.56;5112049;28;20100;-45
2024/02/12 06:58:42;;;;;;;14.90;10.30;;;;;;;9.49;100.00;98716.41;5111432;28;20051;-45
2024/02/12 07:01:12;;;;;;;13.10;8.73;;;;;;;9.50;100.00;98718.09;5114525;28;20067;-46
2024/02/12 07:03:41;;;;;;;15.05;9.23;;;;;;;9.45;100.00;98717.59;5112553;28;20050;-45
2024/02/12 07:06:12;;;;;;;14.20;8.75;;;;;;;9.56;100.00;98712.28;5111946;28;20044;-47
2024/02/12 07:08:41;;;;;;;12.80;8.18;;;;;;;9.66;100.00;98715.91;5112233;27;20144;-45
2024/02/12 07:11:14;;;;;;;12.23;8.02;;;;;;;9.74;100.00;98710.78;5111680;28;20089;-47
2024/02/12 07:13:42;;;;;;;12.88;8.77;;;;;;;9.81;100.00;98716.47;5111625;28;20039;-45
2024/02/12 07:16:16;;;;;;;12.88;7.90;;;;;;;9.78;100.00;98724.69;5111674;28;20116;-45
2024/02/12 07:18:45;;;;;;;13.27;8.32;;;;;;;9.88;100.00;98727.47;5111252;28;20051;-45
2024/02/12 07:21:15;;;;;;;11.82;8.02;;;;;;;9.90;100.00;98725.53;5111341;28;20047;-46
2024/02/12 07:23:43;;;;;;;11.77;7.97;;;;;;;9.95;100.00;98726.00;5111482;28;20066;-45
2024/02/12 07:26:12;;;;;;;11.55;7.85;;;;;;;10.02;100.00;98725.34;5111324;28;20046;-46
2024/02/12 07:28:40;;;;;;;11.98;7.68;;;;;;;10.05;100.00;98734.94;5111539;28;20459;-46
2024/02/12 07:31:09;;;;;;;11.52;7.07;;;;;;;9.98;100.00;98731.06;5111450;28;20051;-46
2024/02/12 07:33:37;;;;;;;8.82;6.43;;;;;;;9.85;100.00;98728.56;5111766;28;20048;-45
2024/02/12 07:36:08;;;;;;;11.68;7.20;;;;;;;10.10;100.00;98735.38;5111721;28;20078;-46
2024/02/12 07:38:37;;;;;;;9.90;7.00;;;;;;;10.15;100.00;98733.19;5111553;28;20054;-45
2024/02/12 07:41:05;;;;;;;11.32;6.97;;;;;;;10.16;100.00;98736.72;5111554;28;20055;-48
2024/02/12 07:43:34;;;;;;;11.55;7.05;;;;;;;10.18;100.00;98738.28;5111454;28;20128;-47
2024/02/12 07:46:04;;;;;;;11.45;6.55;;;;;;;9.98;100.00;98739.06;5111704;28;20069;-48
2024/02/12 07:48:32;;;;;;;10.43;7.03;;;;;;;9.93;100.00;98741.25;5111202;28;20132;-46
2024/02/12 07:51:04;;;;;;;10.77;7.75;;;;;;;10.03;100.00;98742.19;5109948;28;20048;-45
2024/02/12 07:53:33;;;;;;;12.95;8.55;;;;;;;9.94;100.00;98743.81;5111182;28;20043;-45
2024/02/12 07:56:04;;;;;;;13.50;9.48;;;;;;;10.07;100.00;98751.63;5110892;28;20164;-45
2024/02/12 07:58:32;;;;;;;12.82;8.63;;;;;;;9.89;100.00;98759.31;5110566;28;20043;-43
2024/02/12 08:01:01;;;;;;;17.60;9.57;;;;;;;9.68;100.00;98756.56;5111043;28;20242;-45
2024/02/12 08:03:29;;;;;;;12.55;7.90;;;;;;;9.68;100.00;98764.53;5110997;28;20079;-45
2024/02/12 08:05:58;;;;;;;10.85;6.60;;;;;;;9.61;100.00;98763.31;5111092;28;20123;-47
2024/02/12 08:08:27;;;;;;;10.45;6.43;;;;;;;9.46;100.00;98767.22;5110973;28;20059;-44
2024/02/12 08:10:55;;;;;;;8.13;5.70;;;;;;;9.53;100.00;98767.56;5113423;28;20139;-44
2024/02/12 08:13:25;;;;;;;11.02;6.63;;;;;;;9.62;100.00;98774.81;5115009;28;20404;-45
2024/02/12 08:15:54;;;;;;;10.38;6.50;;;;;;;9.74;100.00;98766.69;5114943;28;20130;-46
2024/02/12 08:18:22;;;;;;;9.82;6.20;;;;;;;9.86;100.00;98777.34;5114931;28;20184;-46
2024/02/12 08:20:50;;;;;;;10.95;7.43;;;;;;;9.88;100.00;98783.41;5117637;28;20051;-45
2024/02/12 08:23:19;;;;;;;12.65;7.18;;;;;;;9.97;100.00;98780.84;5116799;28;20381;-44
2024/02/12 08:25:47;;;;;;;11.75;7.70;;;;;;;10.01;100.00;98782.25;5114678;28;20059;-45
2024/02/12 08:28:15;;;;;;;8.73;6.35;;;;;;;9.98;100.00;98781.69;5114593;28;20050;-43
2024/02/12 08:30:46;;;;;;;8.70;6.28;;;;;;;9.91;100.00;98785.81;5114444;28;20048;-48
2024/02/12 08:33:15;;;;;;;9.95;6.25;;;;;;;10.04;100.00;98789.19;5114620;28;20047;-45
2024/02/12 08:35:43;;;;;;;10.70;6.00;;;;;;;10.16;100.00;98790.84;5114234;28;20431;-44
2024/02/12 08:38:11;;;;;;;9.88;6.22;;;;;;;10.07;100.00;98794.25;5114363;28;20085;-45
2024/02/12 08:40:40;;;;;;;10.88;6.22;;;;;;;10.08;100.00;98785.28;5114713;28;20131;-43
2024/02/12 08:43:08;;;;;;;10.25;6.07;;;;;;;9.96;100.00;98789.81;5114333;28;20453;-44
2024/02/12 08:45:37;;;;;;;9.77;6.22;;;;;;;10.04;100.00;98781.19;5114325;28;20433;-45
2024/02/12 08:48:07;;;;;;;9.07;6.22;;;;;;;10.18;100.00;98777.41;5114275;28;20330;-45
2024/02/12 08:50:36;;;;;;;9.52;5.57;;;;;;;10.32;100.00;98785.13;5113933;28;20062;-44
2024/02/12 08:53:05;;;;;;;12.25;7.00;;;;;;;10.18;100.00;98783.56;5114606;28;20040;-45
2024/02/12 08:55:33;;;;;;;12.93;8.27;;;;;;;10.37;100.00;98790.09;5114238;28;20155;-46
2024/02/12 08:58:05;;;;;;;10.55;6.20;;;;;;;10.23;100.00;98789.41;5113992;28;20093;-45
2024/02/12 09:00:33;;;;;;;7.55;5.35;;;;;;;10.22;100.00;98798.34;5114317;28;20410;-45
2024/02/12 09:03:03;;;;;;;8.52;5.78;;;;;;;10.24;100.00;98793.78;5113572;28;20428;-46
2024/02/12 09:05:33;;;;;;;9.13;5.55;;;;;;;10.19;100.00;98801.25;5114192;28;20132;-46
2024/02/12 09:08:01;;;;;;;10.05;5.63;;;;;;;10.23;100.00;98802.75;5114032;28;20495;-46
2024/02/12 09:10:30;;;;;;;9.27;5.93;;;;;;;10.20;100.00;98805.59;5114272;28;20040;-45
2024/02/12 09:12:59;;;;;;;10.43;6.28;;;;;;;10.28;100.00;98811.19;5113769;28;20047;-47
2024/02/12 09:15:28;;;;;;;8.05;5.50;;;;;;;10.18;100.00;98812.03;5113929;28;20051;-48
2024/02/12 09:17:58;;;;;;;11.68;6.53;;;;;;;10.32;100.00;98806.44;5114379;28;20043;-45
2024/02/12 09:20:26;;;;;;;10.55;6.53;;;;;;;10.46;100.00;98811.50;5114036;28;20123;-46
2024/02/12 09:22:57;;;;;;;12.32;7.00;;;;;;;10.49;100.00;98813.06;5113147;28;20054;-47
2024/02/12 09:25:25;;;;;;;10.40;6.55;;;;;;;10.64;100.00;98827.81;5114017;28;20127;-48
2024/02/12 09:27:54;;;;;;;10.93;6.60;;;;;;;10.74;100.00;98828.72;5113937;27;20062;-45
2024/02/12 09:30:22;;;;;;;9.88;5.90;;;;;;;10.65;100.00;98828.66;5113142;28;20120;-48
2024/02/12 09:32:51;;;;;;;10.52;6.25;;;;;;;10.81;100.00;98835.25;5113633;28;20044;-47
2024/02/12 09:35:20;;;;;;;10.35;5.90;;;;;;;10.76;100.00;98837.44;5113244;28;20376;-45
2024/02/12 09:37:49;;;;;;;17.27;6.55;;;;;;;10.61;100.00;98838.69;5113174;27;20088;-46
2024/02/12 09:40:21;;;;;;;13.52;6.00;;;;;;;10.76;100.00;98847.25;5113102;28;20134;-45
2024/02/12 09:42:54;;;;;;;8.45;5.50;;;;;;;10.68;100.00;98845.22;5113180;28;20126;-47
2024/02/12 09:45:25;;;;;;;9.15;6.15;;;;;;;10.81;100.00;98847.75;5113594;28;20057;-46
2024/02/12 09:47:54;;;;;;;10.13;5.95;;;;;;;10.82;100.00;98852.94;5113117;28;20564;-46
2024/02/12 09:50:24;;;;;;;7.97;5.18;;;;;;;10.92;100.00;98849.50;5113210;28;20051;-46
2024/02/12 09:52:56;;;;;;;9.05;5.35;;;;;;;10.91;100.00;98853.16;5113036;28;20093;-45
2024/02/12 09:55:27;;;;;;;11.20;6.07;;;;;;;10.98;100.00;98855.16;5112884;28;20507;-48
2024/02/12 09:57:55;;;;;;;9.98;5.75;;;;;;;10.82;100.00;98860.09;5112932;28;20663;-49
2024/02/12 10:00:23;;;;;;;9.43;5.15;;;;;;;10.91;100.00;98862.00;5112571;28;20385;-46
2024/02/12 10:02:53;;;;;;;8.18;5.38;;;;;;;11.04;100.00;98861.81;5110986;28;20052;-46
2024/02/12 10:05:24;;;;;;;7.75;5.13;;;;;;;11.15;100.00;98857.25;5112376;28;20124;-47
2024/02/12 10:07:53;;;;;;;8.98;4.97;;;;;;;11.21;100.00;98858.56;5112296;28;20048;-46
2024/02/12 10:10:21;;;;;;;8.32;5.60;;;;;;;11.30;100.00;98852.47;5112420;28;20043;-45
2024/02/12 10:12:54;;;;;;;7.32;5.10;;;;;;;11.28;100.00;98848.19;5112491;28;20047;-48
2024/02/12 10:15:23;;;;;;;10.32;6.57;;;;;;;11.18;100.00;98851.66;5114351;28;20047;-45
2024/02/12 10:17:55;;;;;;;14.95;7.82;;;;;;;11.05;100.00;98847.50;5111096;28;20460;-46
2024/02/12 10:20:24;;;;;;;12.20;7.95;;;;;;;11.19;100.00;98844.50;5112279;28;20048;-46
2024/02/12 10:22:53;;;;;;;10.32;5.18;;;;;;;11.26;100.00;98851.00;5112420;28;20047;-46
2024/02/12 10:25:22;;;;;;;9.52;4.65;;;;;;;11.27;100.00;98852.69;5112033;28;20044;-44
2024/02/12 10:27:50;;;;;;;8.35;4.47;;;;;;;11.28;100.00;98849.03;5112134;27;20077;-48
2024/02/12 10:30:21;;;;;;;9.05;3.95;;;;;;;11.21;100.00;98853.25;5112331;28;20055;-48
2024/02/12 10:32:51;;;;;;;8.02;4.63;;;;;;;10.87;100.00;98852.53;5111955;28;20044;-46
2024/02/12 10:35:23;;;;;;;8.68;4.75;;;;;;;10.68;100.00;98852.38;5112062;28;20476;-47
2024/02/12 10:37:52;;;;;;;12.70;6.75;;;;;;;10.78;100.00;98859.50;5111962;28;20043;-45
2024/02/12 10:40:29;;;;;;;10.30;5.32;;;;;;;10.51;100.00;98859.09;5112140;28;20048;-44
2024/02/12 10:43:03;;;;;;;8.98;5.10;;;;;;;10.44;100.00;98860.59;5111877;28;20564;-45
2024/02/12 10:45:34;;;;;;;15.27;4.65;;;;;;;10.42;100.00;98858.06;5111801;28;20597;-48
2024/02/12 10:48:04;;;;;;;36.10;6.88;;;;;;;10.45;100.00;98857.78;5111961;28;20117;-48
2024/02/12 10:50:36;;;;;;;31.52;5.93;;;;;;;10.51;100.00;98848.44;5112385;28;20415;-47
2024/02/12 10:53:06;;;;;;;24.50;6.00;;;;;;;10.55;100.00;98841.88;5104075;28;20496;-44
2024/02/12 10:55:37;;;;;;;34.83;7.10;;;;;;;10.62;100.00;98843.09;5111018;28;20163;-45
2024/02/12 10:58:09;;;;;;;12.10;4.93;;;;;;;10.62;100.00;98839.56;5110952;28;20043;-46
2024/02/12 11:00:40;;;;;;;11.98;4.25;;;;;;;10.50;100.00;98828.94;5103451;27;20074;-48
2024/02/12 11:03:28;;;;;;;12.38;4.20;;;;;;;10.59;100.00;98830.00;5130556;27;20054;-47
2024/02/12 11:05:57;;;;;;;10.88;3.88;;;;;;;10.62;100.00;98832.44;5131530;27;20476;-48
2024/02/12 11:08:28;;;;;;;10.48;4.28;;;;;;;10.76;100.00;98832.09;5131335;27;20051;-45
2024/02/12 11:10:59;;;;;;;7.88;4.13;;;;;;;10.58;100.00;98834.47;5131517;27;20043;-45
2024/02/12 11:13:34;;;;;;;7.65;3.95;;;;;;;10.69;100.00;98830.91;5130941;27;20126;-46
2024/02/12 11:16:13;;;;;;;6.30;3.58;;;;;;;10.62;100.00;98824.41;5131618;27;20632;-46
2024/02/12 11:18:42;;;;;;;6.30;3.90;;;;;;;10.67;100.00;98832.03;5131283;27;20051;-44
2024/02/12 11:21:11;;;;;;;6.13;3.80;;;;;;;10.77;100.00;98827.63;5131296;27;20039;-46
2024/02/12 11:23:41;;;;;;;6.93;3.70;;;;;;;10.80;100.00;98820.19;5130658;27;20256;-48
2024/02/12 11:26:11;;;;;;;8.50;3.70;;;;;;;10.89;100.00;98822.09;5096404;27;20238;-46
2024/02/12 11:28:39;;;;;;;8.30;3.90;;;;;;;10.98;100.00;98824.97;5089844;28;20547;-44
2024/02/12 11:31:12;;;;;;;10.70;4.25;;;;;;;10.92;100.00;98825.50;5090253;28;20457;-45
2024/02/12 11:33:43;;;;;;;13.35;4.15;;;;;;;10.76;100.00;98821.44;5108132;28;20056;-44
2024/02/12 11:36:12;;;;;;;9.38;4.25;;;;;;;10.82;100.00;98826.28;5110740;28;20451;-46
2024/02/12 11:38:49;;;;;;;10.82;3.92;;;;;;;10.89;100.00;98822.09;5110470;28;20043;-44
2024/02/12 11:41:17;;;;;;;9.40;4.07;;;;;;;10.95;100.00;98819.91;5110374;28;20071;-45
2024/02/12 11:43:48;;;;;;;9.98;4.45;;;;;;;10.92;100.00;98815.69;5108267;28;20044;-45
2024/02/12 11:46:18;;;;;;;9.68;4.22;;;;;;;10.97;100.00;98816.13;5113990;28;20126;-45
2024/02/12 11:48:47;;;;;;;7.20;4.28;;;;;;;10.85;100.00;98818.00;5114953;28;20146;-44
2024/02/12 11:51:20;;;;;;;6.57;4.30;;;;;;;10.99;100.00;98815.97;5115300;28;20043;-45
2024/02/12 11:53:51;;;;;;;;;;;;;;;11.14;100.00;98822.69;5133987;27;20047;-45
2024/02/12 11:56:21;;;;;;;6.38;4.00;;;;;;;11.11;100.00;98814.97;5135492;27;19950;-46